Time;durP1;ratioP1;P1;durP2;ratioP2;P2;SDS_P1;SDS_P2;PMS_P1;PMS_P2;Temp;Humidity;BMP_temperature;BMP_pressure;BME280_temperature;BME280_humidity;BME280_pressure;Samples;Min_cycle;Max_cycle;Signal;HPM_P1;HPM_P2
2023/08/23 00:01:11;;;;;;;10.85;5.22;;;17.10;99.90;;;;;;5047582;28;20121;-76
2023/08/23 00:03:36;;;;;;;7.57;4.63;;;17.10;99.90;;;;;;5013254;28;20051;-76
2023/08/23 00:06:02;;;;;;;10.82;4.40;;;17.10;99.90;;;;;;5011856;28;20055;-76
2023/08/23 00:08:28;;;;;;;7.80;4.40;;;17.10;99.90;;;;;;5029012;28;20515;-76
2023/08/23 00:10:54;;;;;;;8.55;4.80;;;17.10;99.90;;;;;;5029481;28;20049;-76
2023/08/23 00:13:20;;;;;;;9.27;4.53;;;17.00;99.90;;;;;;5030469;28;20119;-76
2023/08/23 00:15:46;;;;;;;9.77;5.30;;;17.00;99.90;;;;;;5046735;28;20403;-76
2023/08/23 00:18:12;;;;;;;6.65;3.92;;;17.00;99.90;;;;;;5045216;28;20040;-76
2023/08/23 00:20:37;;;;;;;8.82;4.00;;;16.90;99.90;;;;;;5050852;28;20055;-77
2023/08/23 00:23:03;;;;;;;8.65;4.47;;;16.90;99.90;;;;;;5048186;28;20067;-76
2023/08/23 00:25:29;;;;;;;6.35;4.28;;;16.90;99.90;;;;;;5031524;28;20033;-76
2023/08/23 00:27:54;;;;;;;7.45;4.90;;;16.80;99.90;;;;;;5036969;28;20041;-75
2023/08/23 00:30:20;;;;;;;8.57;4.75;;;16.80;99.90;;;;;;5035190;28;20548;-76
2023/08/23 00:32:46;;;;;;;9.93;5.05;;;16.80;99.90;;;;;;5062749;28;20513;-77
2023/08/23 00:35:11;;;;;;;6.82;4.63;;;16.80;99.90;;;;;;5044344;28;20056;-76
2023/08/23 00:37:37;;;;;;;8.80;4.82;;;16.70;99.90;;;;;;5046813;28;20072;-75
2023/08/23 00:40:02;;;;;;;7.88;4.55;;;16.70;99.90;;;;;;5032839;28;20040;-76
2023/08/23 00:42:28;;;;;;;7.97;5.07;;;16.70;99.90;;;;;;5048234;28;20491;-76
2023/08/23 00:44:54;;;;;;;8.07;5.18;;;16.70;99.90;;;;;;5038655;28;20073;-76
2023/08/23 00:47:20;;;;;;;10.27;5.18;;;16.60;99.90;;;;;;5028453;28;20428;-76
2023/08/23 00:49:46;;;;;;;10.52;3.90;;;16.70;99.90;;;;;;5046719;28;20037;-75
2023/08/23 00:52:13;;;;;;;7.25;4.10;;;16.70;99.90;;;;;;5045002;28;20048;-76
2023/08/23 00:54:39;;;;;;;8.57;4.53;;;16.70;99.90;;;;;;5046097;28;20041;-77
2023/08/23 00:57:06;;;;;;;7.45;4.32;;;16.70;99.90;;;;;;5022002;28;20420;-76
2023/08/23 00:59:32;;;;;;;8.73;4.32;;;16.70;99.90;;;;;;5066060;28;20044;-76
2023/08/23 01:01:58;;;;;;;7.53;4.13;;;16.70;99.90;;;;;;5048191;28;20137;-76
2023/08/23 01:04:24;;;;;;;9.02;4.80;;;16.70;99.90;;;;;;5065472;28;20068;-76
2023/08/23 01:07:18;;;;;;;6.68;3.85;;;16.70;99.90;;;;;;5036585;28;20702;-76
2023/08/23 01:09:56;;;;;;;6.63;4.15;;;16.70;99.90;;;;;;5025828;28;20072;-76
2023/08/23 01:12:51;;;;;;;9.05;4.60;;;16.70;99.90;;;;;;5044547;28;20386;-75
2023/08/23 01:15:18;;;;;;;7.43;3.50;;;16.70;99.90;;;;;;5023824;28;20064;-76
2023/08/23 01:17:44;;;;;;;7.35;3.58;;;16.70;99.90;;;;;;5045516;28;20679;-76
2023/08/23 01:20:11;;;;;;;7.63;3.55;;;16.70;99.90;;;;;;5043881;28;20080;-76
2023/08/23 01:22:39;;;;;;;6.82;3.88;;;16.70;99.90;;;;;;5046175;28;20041;-76
2023/08/23 01:25:05;;;;;;;7.53;4.03;;;16.70;99.90;;;;;;5046304;28;20045;-76
2023/08/23 01:27:32;;;;;;;7.35;3.47;;;16.70;99.90;;;;;;5045465;28;20033;-76
2023/08/23 01:29:58;;;;;;;8.00;3.40;;;16.70;99.90;;;;;;5027801;28;20053;-76
2023/08/23 01:32:37;;;;;;;6.18;3.58;;;16.70;99.90;;;;;;5044892;28;20037;-75
2023/08/23 01:35:21;;;;;;;6.55;4.03;;;16.70;99.90;;;;;;5026472;28;20052;-76
2023/08/23 01:37:52;;;;;;;7.80;4.20;;;16.70;99.90;;;;;;5027299;28;20131;-76
2023/08/23 01:40:18;;;;;;;5.28;2.97;;;16.70;99.90;;;;;;5010938;28;20080;-76
2023/08/23 01:42:45;;;;;;;6.15;3.30;;;16.70;99.90;;;;;;5027146;28;20919;-76
2023/08/23 01:45:10;;;;;;;5.15;3.83;;;16.70;99.90;;;;;;5026779;28;20041;-76
2023/08/23 01:47:36;;;;;;;7.35;3.83;;;16.60;99.90;;;;;;5046271;28;20044;-76
2023/08/23 01:50:03;;;;;;;8.32;4.38;;;16.60;99.90;;;;;;5041789;28;20052;-76
2023/08/23 01:52:28;;;;;;;10.02;4.65;;;16.70;99.90;;;;;;5010246;28;20045;-76
2023/08/23 01:54:54;;;;;;;7.70;4.70;;;16.60;99.90;;;;;;5045217;28;20045;-75
2023/08/23 01:57:19;;;;;;;7.47;4.03;;;16.70;99.90;;;;;;5044948;28;20045;-76
2023/08/23 01:59:47;;;;;;;7.78;4.05;;;16.70;99.90;;;;;;5027456;28;20041;-76
2023/08/23 02:02:12;;;;;;;9.27;5.28;;;16.60;99.90;;;;;;5049351;28;20036;-76
2023/08/23 02:04:38;;;;;;;8.93;5.28;;;16.70;99.90;;;;;;5065004;28;20045;-76
2023/08/23 02:07:04;;;;;;;9.60;4.82;;;16.70;99.90;;;;;;5046312;28;20074;-75
2023/08/23 02:09:31;;;;;;;9.32;4.63;;;16.60;99.90;;;;;;5064620;28;20040;-76
2023/08/23 02:11:57;;;;;;;8.10;4.53;;;16.60;99.90;;;;;;5064891;28;20063;-76
2023/08/23 02:14:22;;;;;;;9.73;4.18;;;16.60;99.90;;;;;;5047067;28;20040;-76
2023/08/23 02:16:48;;;;;;;9.20;4.60;;;16.70;99.90;;;;;;5046875;28;20048;-75
2023/08/23 02:19:13;;;;;;;10.02;4.57;;;16.60;99.90;;;;;;5064544;28;20402;-76
2023/08/23 02:21:39;;;;;;;7.35;4.80;;;16.60;99.90;;;;;;5029056;28;20051;-76
2023/08/23 02:24:05;;;;;;;8.63;4.32;;;16.60;99.90;;;;;;5047134;28;20461;-76
2023/08/23 02:26:31;;;;;;;8.93;5.35;;;16.60;99.90;;;;;;5063671;28;20058;-76
2023/08/23 02:28:56;;;;;;;9.07;5.05;;;16.60;99.90;;;;;;5026910;28;20103;-76
2023/08/23 02:31:22;;;;;;;10.35;5.43;;;16.60;99.90;;;;;;5026473;28;20049;-75
2023/08/23 02:33:47;;;;;;;10.88;5.47;;;16.60;99.90;;;;;;5026804;28;20423;-76
2023/08/23 02:36:13;;;;;;;8.80;4.78;;;16.60;99.90;;;;;;5025165;28;20124;-76
2023/08/23 02:38:39;;;;;;;13.00;6.38;;;16.60;99.90;;;;;;5027028;28;20658;-76
2023/08/23 02:41:05;;;;;;;10.80;5.13;;;16.60;99.90;;;;;;5026455;28;20079;-76
2023/08/23 02:43:30;;;;;;;11.35;6.30;;;16.60;99.90;;;;;;5050419;28;20048;-75
2023/08/23 02:45:56;;;;;;;9.48;4.68;;;16.70;99.90;;;;;;5029727;28;20045;-76
2023/08/23 02:48:21;;;;;;;9.82;4.50;;;16.70;99.90;;;;;;5033069;28;20047;-76
2023/08/23 02:50:47;;;;;;;10.40;5.90;;;16.70;99.90;;;;;;5025568;28;20052;-76
2023/08/23 02:53:13;;;;;;;11.98;6.38;;;16.70;99.90;;;;;;5044164;28;20041;-76
2023/08/23 02:55:38;;;;;;;9.45;5.22;;;16.70;99.90;;;;;;5044894;28;20068;-77
2023/08/23 02:58:04;;;;;;;10.70;5.65;;;16.70;99.90;;;;;;5048627;28;20090;-76
2023/08/23 03:00:30;;;;;;;16.33;6.35;;;16.70;99.90;;;;;;5047835;28;20490;-76
2023/08/23 03:02:56;;;;;;;12.05;5.05;;;16.70;99.90;;;;;;5030267;28;20045;-76
2023/08/23 03:05:22;;;;;;;9.95;6.28;;;16.70;99.90;;;;;;5012431;28;20052;-76
2023/08/23 03:07:47;;;;;;;11.00;6.18;;;16.70;99.90;;;;;;5029780;28;20210;-77
2023/08/23 03:10:13;;;;;;;8.77;5.13;;;16.70;99.90;;;;;;5056972;28;20487;-76
2023/08/23 03:12:39;;;;;;;10.73;5.65;;;16.80;99.90;;;;;;5068393;28;20041;-76
2023/08/23 03:15:05;;;;;;;9.90;6.13;;;16.80;99.90;;;;;;5034859;28;20542;-76
2023/08/23 03:17:31;;;;;;;11.25;6.10;;;16.80;99.90;;;;;;5030199;28;20041;-76
2023/08/23 03:19:57;;;;;;;13.55;5.55;;;16.80;99.90;;;;;;5029223;28;20051;-76
2023/08/23 03:22:23;;;;;;;9.98;5.70;;;16.70;99.90;;;;;;5031671;28;20098;-76
2023/08/23 03:24:50;;;;;;;14.77;6.72;;;16.70;99.90;;;;;;5033691;28;20410;-75
2023/08/23 03:27:15;;;;;;;14.13;6.57;;;16.80;99.90;;;;;;5040573;28;20051;-76
2023/08/23 03:29:46;;;;;;;10.45;6.25;;;16.70;99.90;;;;;;5029840;28;20045;-76
2023/08/23 03:32:11;;;;;;;12.88;6.93;;;16.80;99.90;;;;;;5029740;28;20063;-76
2023/08/23 03:34:37;;;;;;;13.93;6.93;;;16.80;99.90;;;;;;5046981;28;20032;-76
2023/08/23 03:37:02;;;;;;;10.32;5.57;;;16.70;99.90;;;;;;5047054;28;20134;-73
2023/08/23 03:39:28;;;;;;;10.60;5.53;;;16.80;99.90;;;;;;5047332;28;20171;-74
2023/08/23 03:41:54;;;;;;;11.25;6.07;;;16.80;99.90;;;;;;5029239;28;20057;-74
2023/08/23 03:44:19;;;;;;;11.85;5.80;;;16.70;99.90;;;;;;5047407;28;20052;-73
2023/08/23 03:46:45;;;;;;;8.18;5.28;;;16.80;99.90;;;;;;5029798;28;20399;-74
2023/08/23 03:49:10;;;;;;;14.75;6.45;;;16.70;99.90;;;;;;5046937;28;20041;-74
2023/08/23 03:51:36;;;;;;;13.13;6.72;;;16.80;99.90;;;;;;5046800;28;20048;-74
2023/08/23 03:54:01;;;;;;;10.18;6.15;;;16.70;99.90;;;;;;5012937;28;20112;-73
2023/08/23 03:56:27;;;;;;;14.65;6.03;;;16.70;99.90;;;;;;5028767;28;20584;-73
2023/08/23 03:58:53;;;;;;;10.82;5.70;;;16.70;99.90;;;;;;5047277;28;20029;-73
2023/08/23 04:01:19;;;;;;;12.63;6.28;;;16.70;99.90;;;;;;5042312;28;20055;-74
2023/08/23 04:03:45;;;;;;;10.73;6.00;;;16.70;99.90;;;;;;5058729;28;20488;-74
2023/08/23 04:06:10;;;;;;;11.98;5.95;;;16.70;99.90;;;;;;5045441;28;20047;-75
2023/08/23 04:08:36;;;;;;;11.90;6.65;;;16.70;99.90;;;;;;5046753;28;20057;-73
2023/08/23 04:11:02;;;;;;;11.05;5.50;;;16.70;99.90;;;;;;5022586;28;20051;-74
2023/08/23 04:13:27;;;;;;;10.00;6.00;;;16.60;99.90;;;;;;5048484;28;20090;-74
2023/08/23 04:15:53;;;;;;;12.60;5.93;;;16.70;99.90;;;;;;5029198;28;20072;-74
2023/08/23 04:18:18;;;;;;;10.98;6.43;;;16.60;99.90;;;;;;5046463;28;20086;-74
2023/08/23 04:20:44;;;;;;;9.60;5.78;;;16.60;99.90;;;;;;5028346;28;20045;-73
2023/08/23 04:23:10;;;;;;;14.55;6.60;;;16.70;99.90;;;;;;5028717;28;20067;-74
2023/08/23 04:25:36;;;;;;;12.75;6.50;;;16.70;99.90;;;;;;5047247;28;20676;-74
2023/08/23 04:28:01;;;;;;;10.40;5.72;;;16.60;99.90;;;;;;5046675;28;20128;-74
2023/08/23 04:30:27;;;;;;;9.75;5.97;;;16.70;99.90;;;;;;5028767;28;20465;-74
2023/08/23 04:32:52;;;;;;;14.73;6.63;;;16.70;99.90;;;;;;5028449;28;20064;-73
2023/08/23 04:35:18;;;;;;;14.82;6.50;;;16.60;99.90;;;;;;5010916;28;20040;-73
2023/08/23 04:37:44;;;;;;;10.98;6.45;;;16.70;99.90;;;;;;5046002;28;20598;-74
2023/08/23 04:40:09;;;;;;;13.48;6.43;;;16.70;99.90;;;;;;5046191;28;20048;-74
2023/08/23 04:42:36;;;;;;;11.55;5.97;;;16.70;99.90;;;;;;5029216;28;20097;-74
2023/08/23 04:45:02;;;;;;;13.65;6.82;;;16.70;99.90;;;;;;5045997;28;20556;-74
2023/08/23 04:47:30;;;;;;;11.35;6.68;;;16.70;99.90;;;;;;5028004;28;20123;-74
2023/08/23 04:49:55;;;;;;;12.50;6.57;;;16.70;99.90;;;;;;5027739;28;20049;-74
2023/08/23 04:52:21;;;;;;;14.82;8.10;;;16.70;99.90;;;;;;5045978;28;20069;-73
2023/08/23 04:54:47;;;;;;;12.50;6.95;;;16.70;99.90;;;;;;5046241;28;20048;-74
2023/08/23 04:57:12;;;;;;;17.05;7.63;;;16.70;99.90;;;;;;5027969;28;20538;-74
2023/08/23 04:59:38;;;;;;;14.40;5.75;;;16.60;99.90;;;;;;5027829;28;20048;-75
2023/08/23 05:02:04;;;;;;;16.00;7.53;;;16.70;99.90;;;;;;5028578;28;20099;-73
2023/08/23 05:04:29;;;;;;;11.80;6.38;;;16.60;99.90;;;;;;5026571;28;20399;-73
2023/08/23 05:06:55;;;;;;;14.07;7.35;;;16.60;99.90;;;;;;5028163;28;20641;-74
2023/08/23 05:09:20;;;;;;;10.48;7.10;;;16.60;99.90;;;;;;5045248;28;20063;-73
2023/08/23 05:11:46;;;;;;;12.15;7.25;;;16.60;99.90;;;;;;5045790;28;20045;-74
2023/08/23 05:14:12;;;;;;;13.75;7.18;;;16.60;99.90;;;;;;5029833;28;20041;-74
2023/08/23 05:16:37;;;;;;;13.20;7.43;;;16.60;99.90;;;;;;5061384;28;20033;-75
2023/08/23 05:19:03;;;;;;;16.92;7.68;;;16.60;99.90;;;;;;5039088;28;20479;-74
2023/08/23 05:21:29;;;;;;;15.48;6.45;;;16.60;99.90;;;;;;5015649;28;20167;-74
2023/08/23 05:23:54;;;;;;;14.27;7.47;;;16.60;99.90;;;;;;5019523;28;20049;-74
2023/08/23 05:26:20;;;;;;;11.50;7.25;;;16.60;99.90;;;;;;5015244;28;20092;-74
2023/08/23 05:28:45;;;;;;;13.00;7.53;;;16.60;99.90;;;;;;5044802;28;20033;-74
2023/08/23 05:31:11;;;;;;;15.70;7.88;;;16.60;99.90;;;;;;5043365;28;20080;-74
2023/08/23 05:33:39;;;;;;;9.85;6.20;;;16.50;99.90;;;;;;5027440;28;20094;-74
2023/08/23 05:36:05;;;;;;;11.75;6.10;;;16.50;99.90;;;;;;5026660;28;20053;-74
2023/08/23 05:38:30;;;;;;;12.77;6.95;;;16.60;99.90;;;;;;5045521;28;20040;-74
2023/08/23 05:40:56;;;;;;;12.23;6.35;;;16.60;99.90;;;;;;5044602;28;20380;-74
2023/08/23 05:43:22;;;;;;;11.23;7.28;;;16.60;99.90;;;;;;5042873;28;20033;-74
2023/08/23 05:45:50;;;;;;;12.15;6.60;;;16.60;99.90;;;;;;5011513;28;20435;-75
2023/08/23 05:48:16;;;;;;;11.00;5.90;;;16.60;99.90;;;;;;5025895;28;20041;-76
2023/08/23 05:50:42;;;;;;;12.73;6.97;;;16.70;99.90;;;;;;5021853;28;20442;-77
2023/08/23 05:53:14;;;;;;;15.45;7.78;;;16.70;99.90;;;;;;5038657;28;20545;-78
2023/08/23 05:55:40;;;;;;;13.27;7.05;;;16.70;99.90;;;;;;5021000;28;20415;-76
2023/08/23 05:58:05;;;;;;;14.50;7.18;;;16.70;99.90;;;;;;5020536;28;20071;-75
2023/08/23 06:00:31;;;;;;;17.52;8.88;;;16.80;99.90;;;;;;5014255;28;20556;-76
2023/08/23 06:02:56;;;;;;;15.20;8.15;;;16.80;99.90;;;;;;5016162;28;20654;-75
2023/08/23 06:05:22;;;;;;;13.38;8.82;;;16.90;99.90;;;;;;5041604;28;20086;-76
2023/08/23 06:07:48;;;;;;;12.98;8.00;;;16.90;99.90;;;;;;5034448;28;20517;-74
2023/08/23 06:10:13;;;;;;;16.33;9.30;;;16.90;99.90;;;;;;5040715;28;20120;-76
2023/08/23 06:12:39;;;;;;;18.00;8.32;;;17.00;99.90;;;;;;5043972;28;20116;-76
2023/08/23 06:15:05;;;;;;;16.88;9.38;;;17.10;99.90;;;;;;5024774;28;20048;-75
2023/08/23 06:17:31;;;;;;;16.25;8.57;;;17.10;99.90;;;;;;5034208;28;20099;-75
2023/08/23 06:19:56;;;;;;;14.93;8.55;;;17.20;99.90;;;;;;5011849;28;20041;-78
2023/08/23 06:22:22;;;;;;;19.08;9.55;;;17.20;99.90;;;;;;5026405;28;20047;-76
2023/08/23 06:24:48;;;;;;;20.38;9.80;;;17.30;99.90;;;;;;5038250;28;20491;-76
2023/08/23 06:27:13;;;;;;;18.38;9.88;;;17.40;99.90;;;;;;5038904;28;20079;-75
2023/08/23 06:29:40;;;;;;;21.48;9.60;;;17.40;99.90;;;;;;5009093;28;20041;-76
2023/08/23 06:32:07;;;;;;;19.40;9.73;;;17.50;99.90;;;;;;5044204;28;20055;-76
2023/08/23 06:34:33;;;;;;;21.27;9.88;;;17.50;99.90;;;;;;5042583;28;20048;-75
2023/08/23 06:36:59;;;;;;;17.95;8.98;;;17.60;99.90;;;;;;5044234;28;20077;-76
2023/08/23 06:39:24;;;;;;;23.60;10.65;;;17.60;99.90;;;;;;5044035;28;20083;-75
2023/08/23 06:41:50;;;;;;;18.00;8.70;;;17.70;99.90;;;;;;5043445;28;20472;-76
2023/08/23 06:44:16;;;;;;;18.05;9.57;;;17.70;99.90;;;;;;5025981;28;20056;-76
2023/08/23 06:46:42;;;;;;;18.55;8.68;;;17.70;99.90;;;;;;5026644;28;20053;-76
2023/08/23 06:49:07;;;;;;;18.23;10.32;;;17.80;99.90;;;;;;5025266;28;20033;-78
2023/08/23 06:51:33;;;;;;;18.65;10.23;;;17.80;99.90;;;;;;5044499;28;20041;-76
2023/08/23 06:53:59;;;;;;;21.38;10.55;;;17.90;99.90;;;;;;5009496;28;20079;-76
2023/08/23 06:56:26;;;;;;;21.83;9.73;;;17.90;99.90;;;;;;5025530;28;20419;-76
2023/08/23 06:58:51;;;;;;;15.70;9.70;;;18.00;99.90;;;;;;5043189;28;20490;-75
2023/08/23 07:01:17;;;;;;;22.67;9.82;;;18.00;99.90;;;;;;5043064;28;20048;-76
2023/08/23 07:03:43;;;;;;;20.70;9.85;;;18.10;99.90;;;;;;5044163;28;20129;-75
2023/08/23 07:06:14;;;;;;;18.70;9.20;;;18.10;99.90;;;;;;5025017;28;20044;-77
2023/08/23 07:08:43;;;;;;;19.65;9.45;;;18.10;99.90;;;;;;5009423;28;20057;-76
2023/08/23 07:11:09;;;;;;;24.65;10.13;;;18.20;99.90;;;;;;5043989;28;20187;-77
2023/08/23 07:13:38;;;;;;;19.83;8.88;;;18.20;99.90;;;;;;5043866;28;20128;-76
2023/08/23 07:16:03;;;;;;;19.15;8.45;;;18.30;99.90;;;;;;5008581;28;20041;-76
2023/08/23 07:18:29;;;;;;;17.20;9.02;;;18.40;99.90;;;;;;5024957;28;20526;-76
2023/08/23 07:20:56;;;;;;;16.00;7.75;;;18.40;99.90;;;;;;5024683;28;20131;-77
2023/08/23 07:23:21;;;;;;;18.77;8.63;;;18.40;99.90;;;;;;5027891;28;20178;-74
2023/08/23 07:25:47;;;;;;;21.50;9.77;;;18.50;99.90;;;;;;5025411;28;20594;-76
2023/08/23 07:28:12;;;;;;;15.25;8.60;;;18.50;99.90;;;;;;5042132;28;20376;-76
2023/08/23 07:30:43;;;;;;;13.85;8.15;;;18.50;99.90;;;;;;5025379;28;20187;-76
2023/08/23 07:33:08;;;;;;;14.63;8.50;;;18.60;99.90;;;;;;5043516;28;20422;-77
2023/08/23 07:35:34;;;;;;;15.63;7.82;;;18.60;99.90;;;;;;5043036;28;20064;-76
2023/08/23 07:38:00;;;;;;;19.33;9.57;;;18.60;99.90;;;;;;5025815;28;20072;-76
2023/08/23 07:40:25;;;;;;;15.00;8.70;;;18.60;99.90;;;;;;5029275;28;20041;-76
2023/08/23 07:42:51;;;;;;;21.88;7.80;;;18.70;99.90;;;;;;5028053;28;20059;-76
2023/08/23 07:45:16;;;;;;;15.93;7.72;;;18.70;99.90;;;;;;5046903;28;20044;-75
2023/08/23 07:47:42;;;;;;;15.32;7.88;;;18.80;99.90;;;;;;5047402;28;20518;-76
2023/08/23 07:50:08;;;;;;;18.60;8.98;;;18.70;99.90;;;;;;5027597;28;20053;-77
2023/08/23 07:52:35;;;;;;;11.48;6.32;;;18.80;99.90;;;;;;5011797;28;20045;-76
2023/08/23 07:55:01;;;;;;;17.10;7.05;;;18.80;99.90;;;;;;5047558;28;20084;-76
2023/08/23 07:57:26;;;;;;;14.00;7.78;;;18.80;99.90;;;;;;5028284;28;20161;-76
2023/08/23 07:59:55;;;;;;;13.60;7.32;;;18.80;99.90;;;;;;5028943;28;20041;-76
2023/08/23 08:02:21;;;;;;;12.85;7.28;;;18.90;99.90;;;;;;5046981;28;20044;-76
2023/08/23 08:04:47;;;;;;;15.57;7.82;;;18.90;99.90;;;;;;5027387;28;20051;-77
2023/08/23 08:07:12;;;;;;;19.15;7.90;;;19.00;99.90;;;;;;5028773;28;20146;-76
2023/08/23 08:09:38;;;;;;;12.35;6.85;;;19.10;99.90;;;;;;5028528;28;20411;-77
2023/08/23 08:12:04;;;;;;;15.57;7.68;;;19.10;99.90;;;;;;5050292;28;20041;-76
2023/08/23 08:14:30;;;;;;;14.57;7.18;;;19.20;99.90;;;;;;5028996;28;20227;-74
2023/08/23 08:16:55;;;;;;;12.23;6.32;;;19.30;99.90;;;;;;5030311;28;20037;-76
2023/08/23 08:19:21;;;;;;;12.13;7.22;;;19.30;99.90;;;;;;5028033;28;20052;-75
2023/08/23 08:21:46;;;;;;;10.98;5.43;;;19.30;99.90;;;;;;5047172;28;20523;-76
2023/08/23 08:24:12;;;;;;;10.10;5.25;;;19.40;99.90;;;;;;5045796;28;20040;-77
2023/08/23 08:26:38;;;;;;;16.60;7.82;;;19.40;99.90;;;;;;5047169;28;20492;-76
2023/08/23 08:29:03;;;;;;;15.52;6.88;;;19.50;99.90;;;;;;5029449;28;20045;-74
2023/08/23 08:31:29;;;;;;;11.10;6.22;;;19.50;99.90;;;;;;5030756;28;20056;-74
2023/08/23 08:33:57;;;;;;;12.35;6.60;;;19.50;99.90;;;;;;5046179;28;20048;-74
2023/08/23 08:36:23;;;;;;;13.07;6.40;;;19.50;99.90;;;;;;5047114;28;20048;-74
2023/08/23 08:38:48;;;;;;;12.95;6.30;;;19.50;99.90;;;;;;5028392;28;20094;-74
2023/08/23 08:41:15;;;;;;;9.10;5.57;;;19.60;99.90;;;;;;5046379;28;20466;-75
2023/08/23 08:43:40;;;;;;;12.25;5.95;;;19.60;99.90;;;;;;5029024;28;20044;-75
2023/08/23 08:46:06;;;;;;;12.57;6.88;;;19.60;99.90;;;;;;5015895;28;20040;-74
2023/08/23 08:48:32;;;;;;;14.65;6.93;;;19.70;99.90;;;;;;5031226;28;20132;-74
2023/08/23 08:50:59;;;;;;;13.32;7.03;;;19.70;99.90;;;;;;5027777;28;20165;-75
2023/08/23 08:53:26;;;;;;;8.52;5.93;;;19.60;99.90;;;;;;5027687;28;20049;-75
2023/08/23 08:55:52;;;;;;;9.75;5.80;;;19.60;99.90;;;;;;5028488;28;20096;-75
2023/08/23 08:58:19;;;;;;;11.55;5.88;;;19.70;99.90;;;;;;5028595;28;20053;-75
2023/08/23 09:00:48;;;;;;;9.57;5.55;;;19.70;99.90;;;;;;5025729;28;20040;-74
2023/08/23 09:03:17;;;;;;;10.00;6.05;;;19.70;99.90;;;;;;5030783;28;20402;-77
2023/08/23 09:05:44;;;;;;;9.07;5.32;;;19.80;99.90;;;;;;5045812;28;20115;-76
2023/08/23 09:08:10;;;;;;;7.95;4.30;;;19.80;99.90;;;;;;5027622;28;20056;-74
2023/08/23 09:10:35;;;;;;;8.52;4.65;;;19.80;99.90;;;;;;5034985;28;20052;-79
2023/08/23 09:13:01;;;;;;;9.18;4.30;;;19.80;99.90;;;;;;5032946;28;20053;-75
2023/08/23 09:15:27;;;;;;;5.68;4.22;;;19.90;99.90;;;;;;5045100;28;20044;-74
2023/08/23 09:17:54;;;;;;;9.95;4.82;;;20.00;99.90;;;;;;5028267;28;20041;-77
2023/08/23 09:20:21;;;;;;;11.75;5.43;;;20.10;99.90;;;;;;5031687;28;20040;-74
2023/08/23 09:22:51;;;;;;;9.27;5.95;;;20.10;99.90;;;;;;5029427;28;20041;-79
2023/08/23 09:25:17;;;;;;;11.48;6.18;;;20.20;99.90;;;;;;5045760;28;20083;-76
2023/08/23 09:27:43;;;;;;;8.05;4.70;;;20.20;99.90;;;;;;5011173;28;20036;-77
2023/08/23 09:30:09;;;;;;;8.57;4.10;;;20.20;99.90;;;;;;5027312;28;20759;-77
2023/08/23 09:32:35;;;;;;;5.20;3.78;;;20.30;99.90;;;;;;5047143;28;20526;-78
2023/08/23 09:35:11;;;;;;;6.13;3.63;;;20.40;99.90;;;;;;5046627;28;20119;-75
2023/08/23 09:37:44;;;;;;;9.95;3.50;;;20.40;99.90;;;;;;5037810;28;20037;-76
2023/08/23 09:40:21;;;;;;;9.00;3.92;;;20.40;99.90;;;;;;5020211;28;20048;-76
2023/08/23 09:42:48;;;;;;;7.95;4.28;;;20.50;99.90;;;;;;5011546;28;20045;-79
2023/08/23 09:45:17;;;;;;;8.00;3.65;;;20.60;99.90;;;;;;5045165;28;20068;-76
2023/08/23 09:47:52;;;;;;;7.00;3.42;;;20.70;99.90;;;;;;5026066;28;20048;-77
2023/08/23 09:50:23;;;;;;;8.35;3.88;;;20.70;99.90;;;;;;5026619;28;20128;-76
2023/08/23 09:53:08;;;;;;;6.00;3.45;;;20.80;99.90;;;;;;5027380;28;20052;-76
2023/08/23 09:55:34;;;;;;;6.70;4.00;;;20.80;99.90;;;;;;5028035;28;20317;-77
2023/08/23 09:58:01;;;;;;;6.90;3.45;;;20.80;99.90;;;;;;5027240;28;20056;-77
2023/08/23 10:00:28;;;;;;;6.68;3.20;;;20.90;99.90;;;;;;5027106;28;20106;-76
2023/08/23 10:02:56;;;;;;;5.10;3.25;;;20.90;99.90;;;;;;5045124;28;20036;-75
2023/08/23 10:05:22;;;;;;;10.10;3.38;;;20.90;99.90;;;;;;5024115;28;20044;-77
2023/08/23 10:07:48;;;;;;;5.40;3.40;;;20.90;99.90;;;;;;5010230;28;20696;-79
2023/08/23 10:10:14;;;;;;;6.28;3.47;;;20.90;99.90;;;;;;5044209;28;20056;-77
2023/08/23 10:12:43;;;;;;;6.30;3.30;;;20.90;99.90;;;;;;5027654;28;20068;-77
2023/08/23 10:15:12;;;;;;;5.05;2.95;;;21.00;99.90;;;;;;5044706;28;20053;-77
2023/08/23 10:17:39;;;;;;;7.45;2.80;;;21.00;99.90;;;;;;5026958;28;20052;-79
2023/08/23 10:20:07;;;;;;;6.95;2.88;;;21.00;99.90;;;;;;5027045;28;20059;-77
2023/08/23 10:22:33;;;;;;;5.13;3.03;;;21.00;99.90;;;;;;5033118;28;20048;-76
2023/08/23 10:24:59;;;;;;;4.95;2.67;;;21.00;99.90;;;;;;5026975;28;20045;-77
2023/08/23 10:27:25;;;;;;;5.25;2.67;;;21.10;99.90;;;;;;5031426;28;20071;-77
2023/08/23 10:29:51;;;;;;;4.88;2.97;;;21.10;99.90;;;;;;5044807;28;20079;-79
2023/08/23 10:32:17;;;;;;;6.80;2.08;;;21.10;99.90;;;;;;5026594;28;20090;-77
2023/08/23 10:34:43;;;;;;;4.68;2.70;;;21.10;99.90;;;;;;5026291;28;20040;-76
2023/08/23 10:37:17;;;;;;;5.03;3.25;;;21.20;99.90;;;;;;5026671;28;20495;-78
2023/08/23 10:39:54;;;;;;;4.93;2.35;;;21.20;99.90;;;;;;5027101;28;20041;-77
2023/08/23 10:42:21;;;;;;;5.00;2.22;;;21.20;99.90;;;;;;5042683;28;20052;-77
2023/08/23 10:44:57;;;;;;;6.93;3.28;;;21.20;99.90;;;;;;5026323;28;20033;-74
2023/08/23 10:47:23;;;;;;;5.97;2.58;;;21.20;99.90;;;;;;5024921;28;20708;-76
2023/08/23 10:49:50;;;;;;;8.13;3.97;;;21.20;99.90;;;;;;5024819;28;20068;-76
2023/08/23 10:52:16;;;;;;;6.90;2.60;;;21.30;99.90;;;;;;5026428;28;20063;-76
2023/08/23 10:54:42;;;;;;;3.92;1.88;;;21.40;99.90;;;;;;5045156;28;20029;-75
2023/08/23 10:57:08;;;;;;;7.13;2.47;;;21.40;99.90;;;;;;5048927;28;20559;-76
2023/08/23 10:59:34;;;;;;;5.60;2.38;;;21.60;99.90;;;;;;5022727;28;20117;-76
2023/08/23 11:02:00;;;;;;;7.68;1.77;;;21.70;99.90;;;;;;5024986;28;20555;-74
2023/08/23 11:04:26;;;;;;;3.08;2.05;;;21.70;99.90;;;;;;5041322;28;20120;-76
2023/08/23 11:06:52;;;;;;;4.63;2.00;;;21.80;99.90;;;;;;5041777;28;20160;-75
2023/08/23 11:09:18;;;;;;;2.30;2.00;;;21.90;99.90;;;;;;5025334;28;20060;-75
2023/08/23 11:11:44;;;;;;;2.97;1.88;;;22.00;99.90;;;;;;5043094;28;20096;-76
2023/08/23 11:14:10;;;;;;;2.70;1.60;;;22.00;99.90;;;;;;5043556;28;20072;-76
2023/08/23 11:16:35;;;;;;;3.70;1.80;;;22.00;99.90;;;;;;5027452;28;20110;-76
2023/08/23 11:19:07;;;;;;;3.38;1.80;;;22.10;99.90;;;;;;5011681;28;20124;-75
2023/08/23 11:21:35;;;;;;;2.65;1.55;;;22.10;99.90;;;;;;5030041;28;20057;-76
2023/08/23 11:24:04;;;;;;;2.88;1.45;;;22.20;99.90;;;;;;5047569;28;20048;-75
2023/08/23 11:26:36;;;;;;;2.83;1.38;;;22.20;99.90;;;;;;5047843;28;20124;-75
2023/08/23 11:29:03;;;;;;;2.08;1.20;;;22.20;99.90;;;;;;5047633;28;20489;-75
2023/08/23 11:31:29;;;;;;;1.88;1.65;;;22.20;99.90;;;;;;5047676;28;20056;-74
2023/08/23 11:33:57;;;;;;;2.50;1.50;;;22.20;99.90;;;;;;5028096;28;20090;-76
2023/08/23 11:36:23;;;;;;;5.97;2.20;;;22.20;99.90;;;;;;5029349;28;20076;-75
2023/08/23 11:38:49;;;;;;;5.97;2.00;;;22.20;99.90;;;;;;5047646;28;20080;-74
2023/08/23 11:41:26;;;;;;;1.95;1.50;;;22.30;99.90;;;;;;5029566;28;20049;-75
2023/08/23 11:43:53;;;;;;;4.75;1.50;;;22.30;99.90;;;;;;5048165;28;20049;-75
2023/08/23 11:46:18;;;;;;;4.38;1.58;;;22.30;99.90;;;;;;5047047;28;20053;-75
2023/08/23 11:48:44;;;;;;;3.40;1.50;;;22.40;99.90;;;;;;5045923;28;20155;-75
2023/08/23 11:51:10;;;;;;;1.17;1.08;;;22.50;99.90;;;;;;5047836;28;20051;-76
2023/08/23 11:53:35;;;;;;;3.10;1.30;;;22.50;99.90;;;;;;5029659;28;20041;-75
2023/08/23 11:56:05;;;;;;;3.75;1.75;;;22.50;99.90;;;;;;5028832;28;20475;-75
2023/08/23 11:58:31;;;;;;;3.90;1.20;;;22.50;99.90;;;;;;5046491;28;20068;-75
2023/08/23 12:00:57;;;;;;;2.65;1.55;;;22.50;99.90;;;;;;5028043;28;20468;-75
2023/08/23 12:03:22;;;;;;;2.33;1.20;;;22.50;99.90;;;;;;5045554;28;20407;-75
2023/08/23 12:05:48;;;;;;;3.80;1.33;;;22.50;99.90;;;;;;5047022;28;20509;-75
2023/08/23 12:08:14;;;;;;;5.07;1.45;;;22.50;99.90;;;;;;5046976;28;20053;-73
2023/08/23 12:10:40;;;;;;;1.75;1.13;;;22.50;99.90;;;;;;5028431;28;20057;-75
2023/08/23 12:13:06;;;;;;;3.90;1.50;;;22.60;99.90;;;;;;5031568;28;20423;-75
2023/08/23 12:15:31;;;;;;;5.68;1.63;;;22.60;99.90;;;;;;5030806;28;20037;-76
2023/08/23 12:17:57;;;;;;;5.15;1.80;;;22.70;99.90;;;;;;5019716;28;20122;-76
2023/08/23 12:20:23;;;;;;;2.03;1.25;;;22.70;99.90;;;;;;5046716;28;20079;-77
2023/08/23 12:22:50;;;;;;;2.38;1.17;;;22.70;99.90;;;;;;5029644;28;20076;-77
2023/08/23 12:25:16;;;;;;;3.13;1.40;;;22.60;99.90;;;;;;5029404;28;20037;-76
2023/08/23 12:27:42;;;;;;;1.88;1.02;;;22.70;99.90;;;;;;5027629;28;20041;-76
2023/08/23 12:30:11;;;;;;;2.15;1.05;;;22.70;99.90;;;;;;5047912;28;20087;-76
2023/08/23 12:32:37;;;;;;;3.75;1.30;;;22.80;99.90;;;;;;5012826;28;20139;-76
2023/08/23 12:35:06;;;;;;;4.78;1.45;;;22.80;99.90;;;;;;5027966;28;20471;-77
2023/08/23 12:37:32;;;;;;;3.08;1.77;;;22.80;99.90;;;;;;5027806;28;20049;-76